Погода Хафунна неделю

Бари, Сомали

04 - 10 марта
  • 04марта
    Сегодня
    +25°
    +31°
    Облачно с прояснениями
    ВремяПогодаТемператураВлажностьДавлениеВетер, м/сВероятность осадков
    00:00Облачно с прояснениями+26°C89 %760 мм2.0 м/с17 %
    03:00Облачно с прояснениями+26°C90 %759 мм1.7 м/с17 %
    06:00Облачно с прояснениями+26°C89 %761 мм2.0 м/с13 %
    09:00Облачно с прояснениями+29°C74 %761 мм3.7 м/с11 %
    12:00Облачно с прояснениями+30°C67 %760 мм4.9 м/с4 %
    15:00Облачно с прояснениями+30°C69 %759 мм4.8 м/с2 %
    18:00Небольшая облачность+27°C78 %759 мм3.1 м/с2 %
    21:00Практически безоблачно+27°C80 %760 мм1.5 м/с1 %
  • 05марта
    Вторник
    +25°
    +32°
    Небольшая облачность
    ВремяПогодаТемператураВлажностьДавлениеВетер, м/сВероятность осадков
    00:00Облачно с прояснениями+26°C85 %760 мм1.6 м/с4 %
    03:00Облачно с прояснениями+25°C89 %759 мм2.2 м/с14 %
    06:00Облачно с прояснениями+25°C92 %761 мм2.4 м/с20 %
    09:00Облачно с прояснениями+29°C77 %762 мм5.0 м/с26 %
    12:00Облачно с прояснениями+30°C68 %760 мм5.7 м/с10 %
    15:00Небольшая облачность+31°C70 %759 мм5.6 м/с3 %
    18:00Облачно с прояснениями+28°C77 %760 мм4.0 м/с2 %
    21:00Практически безоблачно+27°C81 %761 мм2.5 м/с2 %
  • 06марта
    Среда
    +23°
    +32°
    Ясно и безоблачно
    ВремяПогодаТемператураВлажностьДавлениеВетер, м/сВероятность осадков
    00:00Практически безоблачно+26°C85 %761 мм2.2 м/с1 %
    03:00Практически безоблачно+25°C87 %760 мм2.7 м/с2 %
    06:00Небольшая облачность+26°C85 %761 мм2.9 м/с2 %
    09:00Практически безоблачно+30°C69 %762 мм4.8 м/с2 %
    12:00Ясно и безоблачно+31°C62 %760 мм5.5 м/с2 %
    15:00Ясно и безоблачно+32°C68 %759 мм5.2 м/с2 %
    18:00Ясно и безоблачно+29°C75 %759 мм3.2 м/с2 %
    21:00Практически безоблачно+27°C79 %761 мм2.1 м/с2 %
  • 07марта
    Четверг
    +23°
    +32°
    Ясно и безоблачно
    ВремяПогодаТемператураВлажностьДавлениеВетер, м/сВероятность осадков
    00:00Небольшая облачность+25°C86 %760 мм2.4 м/с2 %
    03:00Практически безоблачно+25°C89 %759 мм3.0 м/с3 %
    06:00Ясно и безоблачно+24°C87 %761 мм3.1 м/с4 %
    09:00Практически безоблачно+30°C69 %762 мм4.2 м/с3 %
    12:00Ясно и безоблачно+31°C65 %760 мм5.5 м/с2 %
    15:00Ясно и безоблачно+31°C65 %759 мм5.0 м/с2 %
    18:00Практически безоблачно+29°C71 %760 мм3.7 м/с2 %
    21:00Практически безоблачно+28°C74 %761 мм3.0 м/с2 %
  • 08марта
    Пятница
    +24°
    +32°
    Ясно и безоблачно
    ВремяПогодаТемператураВлажностьДавлениеВетер, м/сВероятность осадков
    00:00Практически безоблачно+25°C83 %760 мм2.5 м/с2 %
    03:00Ясно и безоблачно+24°C89 %759 мм2.1 м/с2 %
    06:00Небольшая облачность+24°C86 %760 мм2.7 м/с2 %
    09:00Практически безоблачно+30°C68 %761 мм3.8 м/с4 %
    12:00Ясно и безоблачно+32°C61 %759 мм5.2 м/с2 %
    15:00Ясно и безоблачно+31°C65 %758 мм4.5 м/с2 %
    18:00Ясно и безоблачно+28°C74 %759 мм2.8 м/с2 %
    21:00Практически безоблачно+27°C77 %760 мм1.8 м/с2 %
Мы используем cookies
Соглашаюсь